createdAt,value
2018-04-13T00:01:48.007Z,96708.65
2018-04-13T00:04:16.347Z,96701.30
2018-04-13T00:06:44.639Z,96693.92
2018-04-13T00:09:12.923Z,96694.83
2018-04-13T00:11:41.273Z,96692.19
2018-04-13T00:14:09.569Z,96686.82
2018-04-13T00:16:38.482Z,96690.62
2018-04-13T00:19:06.783Z,96697.56
2018-04-13T00:21:35.059Z,96708.91
2018-04-13T00:24:03.370Z,96710.59
2018-04-13T00:26:31.653Z,96712.42
2018-04-13T00:28:59.983Z,96712.91
2018-04-13T00:31:28.631Z,96713.97
2018-04-13T00:33:56.913Z,96717.73
2018-04-13T00:36:25.243Z,96714.70
2018-04-13T00:38:54.386Z,96712.55
2018-04-13T00:41:22.711Z,96714.21
2018-04-13T00:43:51.019Z,96710.63
2018-04-13T00:46:19.611Z,96707.91
2018-04-13T00:48:47.927Z,96720.34
2018-04-13T00:51:16.203Z,96715.89
2018-04-13T00:53:44.490Z,96722.55
2018-04-13T00:56:13.266Z,96720.41
2018-04-13T00:58:41.773Z,96722.66
2018-04-13T01:01:10.869Z,96724.81
2018-04-13T01:03:39.183Z,96724.23
2018-04-13T01:06:07.465Z,96725.49
2018-04-13T01:08:35.838Z,96718.00
2018-04-13T01:11:04.178Z,96716.24
2018-04-13T01:13:33.766Z,96705.52
2018-04-13T01:16:02.046Z,96713.23
2018-04-13T01:18:30.354Z,96708.13
2018-04-13T01:20:59.395Z,96705.11
2018-04-13T01:23:27.805Z,96706.27
2018-04-13T01:25:56.141Z,96696.20
2018-04-13T01:28:24.424Z,96700.97
2018-04-13T01:30:52.710Z,96698.93
2018-04-13T01:33:21.055Z,96691.82
2018-04-13T01:35:50.107Z,96690.75
2018-04-13T01:38:18.383Z,96698.91
2018-04-13T01:40:46.714Z,96694.22
2018-04-13T01:43:16.758Z,96699.27
2018-04-13T01:45:45.216Z,96702.15
2018-04-13T01:48:13.563Z,96711.08
2018-04-13T01:50:42.604Z,96706.63
2018-04-13T01:53:10.892Z,96710.42
2018-04-13T01:55:40.013Z,96711.77
2018-04-13T01:58:08.301Z,96715.64
2018-04-13T02:00:36.587Z,96723.03
2018-04-13T02:03:04.942Z,96733.83
2018-04-13T02:05:33.226Z,96744.16
2018-04-13T02:08:01.578Z,96743.18
2018-04-13T02:10:30.179Z,96739.39
2018-04-13T02:12:58.686Z,96744.75
2018-04-13T02:15:27.042Z,96746.88
2018-04-13T02:17:55.791Z,96753.13
2018-04-13T02:20:24.336Z,96749.41
2018-04-13T02:22:54.251Z,96749.91
2018-04-13T02:25:23.491Z,96756.61
2018-04-13T02:27:51.826Z,96757.09
2018-04-13T02:30:20.666Z,96758.92
2018-04-13T02:32:49.038Z,96756.42
2018-04-13T02:35:17.325Z,96759.36
2018-04-13T02:37:46.051Z,96761.98
2018-04-13T02:40:16.248Z,96762.45
2018-04-13T02:42:44.790Z,96766.55
2018-04-13T02:45:14.516Z,96767.53
2018-04-13T02:47:44.503Z,96772.95
2018-04-13T02:50:14.327Z,96768.59
2018-04-13T02:52:43.069Z,96766.84
2018-04-13T02:55:12.219Z,96767.82
2018-04-13T02:57:41.751Z,96765.94
2018-04-13T03:00:10.062Z,96770.59
2018-04-13T03:02:39.053Z,96770.95
2018-04-13T03:05:07.632Z,96768.42
2018-04-13T03:07:35.924Z,96774.14
2018-04-13T03:10:04.655Z,96766.66
2018-04-13T03:12:33.135Z,96762.88
2018-04-13T03:15:02.033Z,96761.22
2018-04-13T03:17:30.483Z,96762.66
2018-04-13T03:19:58.758Z,96762.88
2018-04-13T03:22:27.107Z,96763.21
2018-04-13T03:24:55.424Z,96768.09
2018-04-13T03:27:24.134Z,96771.67
2018-04-13T03:29:52.455Z,96771.05
2018-04-13T03:32:21.018Z,96772.20
2018-04-13T03:34:49.303Z,96772.70
2018-04-13T03:37:17.619Z,96774.09
2018-04-13T03:39:45.911Z,96772.66
2018-04-13T03:42:14.206Z,96777.22
2018-04-13T03:44:42.543Z,96770.33
2018-04-13T03:47:10.834Z,96778.52
2018-04-13T03:49:39.492Z,96783.36
2018-04-13T03:52:08.049Z,96788.05
2018-04-13T03:54:36.563Z,96794.66
2018-04-13T03:57:04.879Z,96797.69
2018-04-13T03:59:33.947Z,96803.05
2018-04-13T04:02:02.237Z,96807.23
2018-04-13T04:04:30.955Z,96804.03
2018-04-13T04:06:59.611Z,96803.23
2018-04-13T04:09:28.213Z,96806.75
2018-04-13T04:11:56.811Z,96797.79
2018-04-13T04:14:25.777Z,96799.83
2018-04-13T04:16:54.290Z,96809.58
2018-04-13T04:19:40.372Z,96814.14
2018-04-13T04:22:26.234Z,96817.75
2018-04-13T04:25:12.961Z,96820.84
2018-04-13T04:27:41.680Z,96826.50
2018-04-13T04:30:11.875Z,96830.98
2018-04-13T04:32:42.027Z,96833.23
2018-04-13T04:35:10.308Z,96838.86
2018-04-13T04:37:38.762Z,96842.91
2018-04-13T04:40:07.642Z,96851.02
2018-04-13T04:42:35.936Z,96859.88
2018-04-13T04:45:04.799Z,96860.72
2018-04-13T04:47:33.301Z,96867.75
2018-04-13T04:50:01.861Z,96869.12
2018-04-13T04:52:30.410Z,96875.34
2018-04-13T04:54:58.973Z,96875.76
2018-04-13T04:57:27.283Z,96877.23
2018-04-13T04:59:56.331Z,96882.00
2018-04-13T05:02:25.126Z,96883.59
2018-04-13T05:04:53.528Z,96888.75
2018-04-13T05:07:23.417Z,96890.98
2018-04-13T05:09:52.591Z,96892.44
2018-04-13T05:12:20.700Z,96890.78
2018-04-13T05:14:50.778Z,96891.17
2018-04-13T05:17:19.014Z,96892.73
2018-04-13T05:19:47.278Z,96898.86
2018-04-13T05:22:15.557Z,96898.56
2018-04-13T05:24:44.728Z,96902.76
2018-04-13T05:27:13.022Z,96900.91
2018-04-13T05:29:41.310Z,96907.50
2018-04-13T05:32:09.655Z,96909.42
2018-04-13T05:34:37.939Z,96911.75
2018-04-13T05:37:07.114Z,96915.97
2018-04-13T05:39:35.943Z,96915.07
2018-04-13T05:42:04.387Z,96922.27
2018-04-13T05:44:32.887Z,96923.74
2018-04-13T05:47:01.497Z,96929.39
2018-04-13T05:49:30.961Z,96922.99
2018-04-13T05:51:59.664Z,96928.53
2018-04-13T05:54:28.323Z,96929.63
2018-04-13T05:56:56.859Z,96924.11
2018-04-13T05:59:25.174Z,96929.36
2018-04-13T06:01:54.314Z,96926.42
2018-04-13T06:04:23.118Z,96925.64
2018-04-13T06:06:51.768Z,96922.91
2018-04-13T06:09:21.296Z,96919.06
2018-04-13T06:11:50.229Z,96924.14
2018-04-13T06:14:18.662Z,96916.42
2018-04-13T06:16:47.474Z,96918.73
2018-04-13T06:19:16.233Z,96918.75
2018-04-13T06:21:44.519Z,96919.59
2018-04-13T06:24:13.380Z,96929.20
2018-04-13T06:26:42.379Z,96929.36
2018-04-13T06:29:10.671Z,96936.32
2018-04-13T06:31:39.255Z,96938.44
2018-04-13T06:34:07.698Z,96945.21
2018-04-13T06:36:35.991Z,96952.20
2018-04-13T06:39:04.690Z,96953.79
2018-04-13T06:41:33.097Z,96959.78
2018-04-13T06:44:02.401Z,96958.33
2018-04-13T06:46:31.282Z,96961.98
2018-04-13T06:48:59.648Z,96964.23
2018-04-13T06:51:28.532Z,96964.88
2018-04-13T06:53:56.835Z,96963.80
2018-04-13T06:56:25.683Z,96971.05
2018-04-13T06:58:53.974Z,96975.98
2018-04-13T07:01:22.331Z,96985.95
2018-04-13T07:03:50.847Z,96981.11
2018-04-13T07:06:19.135Z,96986.78
2018-04-13T07:08:48.160Z,96993.64
2018-04-13T07:11:17.232Z,97000.34
2018-04-13T07:13:45.531Z,96999.23
2018-04-13T07:16:14.587Z,97010.86
2018-04-13T07:18:42.907Z,97021.01
2018-04-13T07:21:11.210Z,97020.52
2018-04-13T07:23:39.506Z,97023.83
2018-04-13T07:26:07.848Z,97026.27
2018-04-13T07:28:36.135Z,97027.35
2018-04-13T07:31:04.423Z,97028.67
2018-04-13T07:33:32.737Z,97030.88
2018-04-13T07:36:01.027Z,97027.61
2018-04-13T07:38:30.055Z,97033.28
2018-04-13T07:40:58.410Z,97034.67
2018-04-13T07:43:27.481Z,97045.67
2018-04-13T07:45:56.687Z,97044.77
2018-04-13T07:48:25.017Z,97047.52
2018-04-13T07:50:53.835Z,97049.28
2018-04-13T07:53:22.215Z,97048.77
2018-04-13T07:55:51.087Z,97052.00
2018-04-13T07:58:19.394Z,97051.71
2018-04-13T08:00:47.487Z,97061.72
2018-04-13T08:03:16.307Z,97065.64
2018-04-13T08:05:44.595Z,97066.41
2018-04-13T08:08:13.151Z,97068.30
2018-04-13T08:10:41.667Z,97072.31
2018-04-13T08:13:09.981Z,97069.52
2018-04-13T08:15:38.270Z,97072.03
2018-04-13T08:18:06.607Z,97068.95
2018-04-13T08:20:36.305Z,97075.27
2018-04-13T08:23:04.625Z,97087.27
2018-04-13T08:25:32.975Z,97081.59
2018-04-13T08:28:01.273Z,97079.89
2018-04-13T08:30:30.154Z,97082.52
2018-04-13T08:32:58.478Z,97080.22
2018-04-13T08:35:26.840Z,97085.89
2018-04-13T08:37:55.303Z,97083.48
2018-04-13T08:40:23.643Z,97090.28
2018-04-13T08:42:51.990Z,97095.78
2018-04-13T08:45:20.790Z,97096.05
2018-04-13T08:47:50.783Z,97108.54
2018-04-13T08:50:19.081Z,97122.60
2018-04-13T08:52:47.377Z,97118.35
2018-04-13T08:55:15.707Z,97124.33
2018-04-13T08:57:44.045Z,97126.36
2018-04-13T09:00:12.343Z,97129.20
2018-04-13T09:02:40.776Z,97136.56
2018-04-13T09:05:09.836Z,97136.47
2018-04-13T09:07:38.118Z,97152.50
2018-04-13T09:10:06.736Z,97155.45
2018-04-13T09:12:35.048Z,97164.50
2018-04-13T09:15:03.334Z,97168.44
2018-04-13T09:17:31.663Z,97175.11
2018-04-13T09:19:59.950Z,97183.84
2018-04-13T09:22:28.295Z,97186.86
2018-04-13T09:24:56.635Z,97192.99
2018-04-13T09:27:24.922Z,97200.58
2018-04-13T09:29:53.210Z,97204.77
2018-04-13T09:32:22.118Z,97213.13
2018-04-13T09:34:50.419Z,97220.16
2018-04-13T09:37:18.706Z,97229.22
2018-04-13T09:39:47.146Z,97226.05
2018-04-13T09:42:15.667Z,97239.48
2018-04-13T09:44:44.167Z,97236.47
2018-04-13T09:47:13.039Z,97240.42
2018-04-13T09:49:41.363Z,97245.99
2018-04-13T09:52:09.802Z,97248.16
2018-04-13T09:54:38.087Z,97261.82
2018-04-13T09:57:07.803Z,97263.91
2018-04-13T09:59:36.343Z,97264.63
2018-04-13T10:02:04.635Z,97272.91
2018-04-13T10:04:38.386Z,97270.43
2018-04-13T10:07:06.670Z,97277.12
2018-04-13T10:09:35.230Z,97289.56
2018-04-13T10:12:03.547Z,97300.22
2018-04-13T10:14:31.827Z,97308.55
2018-04-13T10:17:00.491Z,97319.73
2018-04-13T10:19:29.375Z,97335.53
2018-04-13T10:21:58.600Z,97344.33
2018-04-13T10:24:26.919Z,97337.60
2018-04-13T10:26:55.249Z,97349.39
2018-04-13T10:29:23.501Z,97362.38
2018-04-13T10:31:52.014Z,97360.42
2018-04-13T10:34:20.294Z,97380.05
2018-04-13T10:36:48.570Z,97374.41
2018-04-13T10:39:17.406Z,97380.71
2018-04-13T10:41:45.684Z,97392.94
2018-04-13T10:44:13.971Z,97412.72
2018-04-13T10:46:42.310Z,97402.06
2018-04-13T10:49:11.354Z,97417.09
2018-04-13T10:51:40.107Z,97422.32
2018-04-13T10:54:09.115Z,97434.16
2018-04-13T10:56:37.403Z,97453.77
2018-04-13T10:59:05.795Z,97451.33
2018-04-13T11:01:34.111Z,97462.69
2018-04-13T11:04:02.446Z,97466.05
2018-04-13T11:06:30.760Z,97475.83
2018-04-13T11:08:59.122Z,97488.14
2018-04-13T11:11:27.418Z,97487.26
2018-04-13T11:13:55.751Z,97495.25
2018-04-13T11:16:24.071Z,97503.33
2018-04-13T11:18:52.355Z,97513.07
2018-04-13T11:21:21.467Z,97522.09
2018-04-13T11:23:50.515Z,97530.38
2018-04-13T11:26:18.799Z,97530.55
2018-04-13T11:28:47.139Z,97540.26
2018-04-13T11:31:15.420Z,97549.36
2018-04-13T11:33:44.475Z,97547.11
2018-04-13T11:36:13.559Z,97549.55
2018-04-13T11:38:41.839Z,97552.20
2018-04-13T11:41:11.548Z,97554.69
2018-04-13T11:43:40.626Z,97559.36
2018-04-13T11:46:08.907Z,97566.17
2018-04-13T11:48:37.328Z,97575.66
2018-04-13T11:51:05.631Z,97578.56
2018-04-13T11:53:35.236Z,97587.09
2018-04-13T11:56:04.347Z,97588.92
2018-04-13T11:58:33.442Z,97592.39
2018-04-13T12:01:01.940Z,97600.64
2018-04-13T12:03:30.816Z,97595.87
2018-04-13T12:05:59.104Z,97604.01
2018-04-13T12:08:27.394Z,97608.61
2018-04-13T12:10:55.730Z,97615.48
2018-04-13T12:13:24.036Z,97617.82
2018-04-13T12:15:52.325Z,97624.32
2018-04-13T12:18:20.663Z,97627.67
2018-04-13T12:20:48.959Z,97628.06
2018-04-13T12:23:17.283Z,97632.68
2018-04-13T12:25:46.323Z,97636.59
2018-04-13T12:28:15.331Z,97646.37
2018-04-13T12:30:43.616Z,97647.05
2018-04-13T12:33:11.957Z,97649.38
2018-04-13T12:35:40.236Z,97653.17
2018-04-13T12:38:08.521Z,97654.59
2018-04-13T12:40:36.849Z,97667.02
2018-04-13T12:43:05.130Z,97672.64
2018-04-13T12:45:33.562Z,97682.22
2018-04-13T12:48:01.851Z,97686.91
2018-04-13T12:50:30.159Z,97692.71
2018-04-13T12:52:58.575Z,97705.33
2018-04-13T12:55:26.879Z,97707.42
2018-04-13T12:57:55.154Z,97708.52
2018-04-13T13:00:23.479Z,97719.59
2018-04-13T13:02:51.771Z,97726.14
2018-04-13T13:05:22.162Z,97721.55
2018-04-13T13:07:50.495Z,97720.26
2018-04-13T13:10:18.830Z,97717.02
2018-04-13T13:12:47.247Z,97723.59
2018-04-13T13:15:15.535Z,97720.47
2018-04-13T13:17:43.828Z,97723.79
2018-04-13T13:20:12.583Z,97725.89
2018-04-13T13:22:40.871Z,97732.86
2018-04-13T13:25:09.154Z,97746.53
2018-04-13T13:27:37.483Z,97750.37
2018-04-13T13:30:07.051Z,97763.95
2018-04-13T13:32:35.358Z,97763.28
2018-04-13T13:35:03.794Z,97764.15
2018-04-13T13:37:32.088Z,97767.33
2018-04-13T13:40:00.379Z,97777.11
2018-04-13T13:42:29.044Z,97786.25
2018-04-13T13:44:57.336Z,97782.83
2018-04-13T13:47:25.811Z,97791.48
2018-04-13T13:49:54.244Z,97795.09
2018-04-13T13:52:22.532Z,97796.16
2018-04-13T13:54:50.946Z,97795.52
2018-04-13T13:57:19.740Z,97801.06
2018-04-13T13:59:48.854Z,97805.37
2018-04-13T14:02:18.106Z,97805.84
2018-04-13T14:04:46.855Z,97815.17
2018-04-13T14:07:15.407Z,97823.72
2018-04-13T14:09:44.395Z,97821.59
2018-04-13T14:12:12.851Z,97824.61
2018-04-13T14:14:41.303Z,97818.92
2018-04-13T14:17:10.107Z,97829.59
2018-04-13T14:19:39.154Z,97841.67
2018-04-13T14:22:07.515Z,97840.23
2018-04-13T14:24:35.802Z,97838.27
2018-04-13T14:27:04.122Z,97839.95
2018-04-13T14:29:32.442Z,97849.27
2018-04-13T14:32:00.744Z,97851.50
2018-04-13T14:34:29.619Z,97853.09
2018-04-13T14:36:58.142Z,97856.21
2018-04-13T14:39:26.428Z,97864.85
2018-04-13T14:41:55.407Z,97864.94
2018-04-13T14:44:24.459Z,97871.02
2018-04-13T14:46:53.219Z,97866.00
2018-04-13T14:49:21.542Z,97869.75
2018-04-13T14:51:50.055Z,97877.30
2018-04-13T14:54:18.348Z,97874.36
2018-04-13T14:56:46.636Z,97869.73
2018-04-13T14:59:14.962Z,97878.19
2018-04-13T15:01:43.255Z,97877.28
2018-04-13T15:04:12.114Z,97871.31
2018-04-13T15:06:41.240Z,97875.05
2018-04-13T15:09:10.297Z,97880.55
2018-04-13T15:11:38.592Z,97880.13
2018-04-13T15:14:06.915Z,97877.73
2018-04-13T15:16:35.197Z,97884.88
2018-04-13T15:19:03.503Z,97892.41
2018-04-13T15:21:31.943Z,97891.09
2018-04-13T15:24:00.989Z,97894.33
2018-04-13T15:26:29.406Z,97900.55
2018-04-13T15:28:57.693Z,97898.00
2018-04-13T15:31:25.978Z,97891.33
2018-04-13T15:33:54.296Z,97895.22
2018-04-13T15:36:22.587Z,97891.98
2018-04-13T15:38:50.920Z,97895.46
2018-04-13T15:41:19.204Z,97888.50
2018-04-13T15:43:47.687Z,97892.34
2018-04-13T15:46:17.119Z,97886.50
2018-04-13T15:48:45.432Z,97885.39
2018-04-13T15:51:14.471Z,97879.55
2018-04-13T15:53:42.795Z,97874.96
2018-04-13T15:56:11.599Z,97878.38
2018-04-13T15:58:40.729Z,97874.87
2018-04-13T16:01:09.139Z,97873.28
2018-04-13T16:03:37.422Z,97870.67
2018-04-13T16:06:05.831Z,97870.95
2018-04-13T16:08:34.880Z,97871.00
2018-04-13T16:11:03.467Z,97873.06
2018-04-13T16:13:31.751Z,97875.05
2018-04-13T16:16:00.040Z,97871.28
2018-04-13T16:18:30.956Z,97871.53
2018-04-13T16:20:59.238Z,97871.35
2018-04-13T16:23:27.527Z,97874.08
2018-04-13T16:25:55.983Z,97883.13
2018-04-13T16:28:24.277Z,97881.93
2018-04-13T16:30:52.592Z,97888.03
2018-04-13T16:33:20.951Z,97891.56
2018-04-13T16:35:49.203Z,97890.58
2018-04-13T16:38:17.490Z,97892.97
2018-04-13T16:40:46.279Z,97881.94
2018-04-13T16:43:14.568Z,97881.02
2018-04-13T16:45:42.854Z,97887.68
2018-04-13T16:48:11.298Z,97888.11
2018-04-13T16:50:40.492Z,97887.33
2018-04-13T16:53:08.768Z,97887.38
2018-04-13T16:55:37.066Z,97889.10
2018-04-13T16:58:06.048Z,97889.31
2018-04-13T17:00:34.416Z,97892.66
2018-04-13T17:03:02.703Z,97892.73
2018-04-13T17:05:30.884Z,97889.90
2018-04-13T17:07:59.171Z,97896.34
2018-04-13T17:10:27.454Z,97899.83
2018-04-13T17:12:56.099Z,97900.61
2018-04-13T17:15:24.388Z,97901.69
2018-04-13T17:17:53.087Z,97899.77
2018-04-13T17:20:21.375Z,97900.36
2018-04-13T17:22:49.667Z,97906.61
2018-04-13T17:25:18.376Z,97912.98
2018-04-13T17:27:46.835Z,97915.13
2018-04-13T17:30:15.311Z,97921.41
2018-04-13T17:32:44.411Z,97921.64
2018-04-13T17:35:12.697Z,97926.72
2018-04-13T17:37:40.988Z,97929.58
2018-04-13T17:40:09.300Z,97936.67
2018-04-13T17:42:37.583Z,97932.99
2018-04-13T17:45:05.895Z,97930.46
2018-04-13T17:47:34.170Z,97934.39
2018-04-13T17:50:03.200Z,97942.52
2018-04-13T17:52:31.927Z,97942.44
2018-04-13T17:55:01.210Z,97946.14
2018-04-13T17:57:29.930Z,97957.08
2018-04-13T18:00:00.207Z,97961.80
2018-04-13T18:02:29.842Z,97961.18
2018-04-13T18:04:58.668Z,97975.34
2018-04-13T18:07:27.616Z,97971.36
2018-04-13T18:09:56.183Z,97979.64
2018-04-13T18:12:24.505Z,97989.70
2018-04-13T18:14:54.016Z,97997.37
2018-04-13T18:17:22.454Z,98002.16
2018-04-13T18:19:51.286Z,98004.66
2018-04-13T18:22:19.735Z,98003.44
2018-04-13T18:24:48.190Z,98011.20
2018-04-13T18:27:16.476Z,98012.81
2018-04-13T18:29:45.388Z,98015.97
2018-04-13T18:32:13.671Z,98020.30
2018-04-13T18:34:42.151Z,98021.55
2018-04-13T18:37:10.484Z,98024.27
2018-04-13T18:39:39.307Z,98027.42
2018-04-13T18:42:07.582Z,98028.92
2018-04-13T18:44:35.920Z,98042.28
2018-04-13T18:47:04.211Z,98041.63
2018-04-13T18:49:32.535Z,98049.41
2018-04-13T18:52:00.831Z,98055.17
2018-04-13T18:54:29.891Z,98059.28
2018-04-13T18:56:58.094Z,98064.81
2018-04-13T18:59:26.374Z,98072.64
2018-04-13T19:02:00.219Z,98075.03
2018-04-13T19:04:28.714Z,98073.58
2018-04-13T19:06:58.415Z,98078.88
2018-04-13T19:09:27.135Z,98075.03
2018-04-13T19:11:56.599Z,98076.59
2018-04-13T19:14:25.827Z,98082.74
2018-04-13T19:16:54.243Z,98091.78
2018-04-13T19:19:22.947Z,98088.03
2018-04-13T19:21:51.647Z,98093.20
2018-04-13T19:24:21.391Z,98102.70
2018-04-13T19:26:50.359Z,98107.63
2018-04-13T19:29:18.806Z,98111.52
2018-04-13T19:31:47.140Z,98108.02
2018-04-13T19:34:15.419Z,98107.82
2018-04-13T19:36:43.701Z,98108.50
2018-04-13T19:39:12.027Z,98106.16
2018-04-13T19:41:40.371Z,98111.09
2018-04-13T19:44:08.655Z,98110.80
2018-04-13T19:46:36.975Z,98118.30
2018-04-13T19:49:05.255Z,98120.22
2018-04-13T19:51:34.184Z,98116.41
2018-04-13T19:54:02.507Z,98115.32
2018-04-13T19:56:31.182Z,98109.88
2018-04-13T19:59:00.233Z,98110.39
2018-04-13T20:01:28.699Z,98107.70
2018-04-13T20:03:56.975Z,98105.41
2018-04-13T20:06:25.410Z,98104.86
2018-04-13T20:08:53.711Z,98105.89
2018-04-13T20:11:22.051Z,98103.12
2018-04-13T20:13:51.770Z,98107.50
2018-04-13T20:16:21.330Z,98113.95
2018-04-13T20:18:49.724Z,98116.91
2018-04-13T20:21:19.131Z,98109.58
2018-04-13T20:23:47.414Z,98112.44
2018-04-13T20:26:15.961Z,98116.55
2018-04-13T20:28:44.247Z,98115.61
2018-04-13T20:31:12.526Z,98116.30
2018-04-13T20:33:40.860Z,98111.60
2018-04-13T20:36:11.186Z,98115.28
2018-04-13T20:38:39.475Z,98121.28
2018-04-13T20:41:07.819Z,98117.75
2018-04-13T20:43:36.324Z,98119.70
2018-04-13T20:46:05.715Z,98113.62
2018-04-13T20:48:34.868Z,98118.63
2018-04-13T20:51:03.167Z,98122.13
2018-04-13T20:53:32.463Z,98124.49
2018-04-13T20:56:01.551Z,98126.61
2018-04-13T20:58:29.932Z,98131.11
2018-04-13T21:00:58.219Z,98129.45
2018-04-13T21:03:27.131Z,98130.30
2018-04-13T21:05:56.173Z,98128.75
2018-04-13T21:08:24.459Z,98129.71
2018-04-13T21:10:52.992Z,98130.59
2018-04-13T21:13:21.843Z,98134.54
2018-04-13T21:15:50.151Z,98137.08
2018-04-13T21:18:18.643Z,98141.52
2018-04-13T21:20:47.775Z,98143.05
2018-04-13T21:23:16.158Z,98140.06
2018-04-13T21:25:44.495Z,98141.44
2018-04-13T21:28:13.585Z,98142.98
2018-04-13T21:30:41.870Z,98153.69
2018-04-13T21:33:10.923Z,98156.66
2018-04-13T21:35:39.624Z,98155.44
2018-04-13T21:38:09.054Z,98162.48
2018-04-13T21:40:37.666Z,98166.69
2018-04-13T21:43:06.599Z,98167.50
2018-04-13T21:45:35.279Z,98166.17
2018-04-13T21:48:03.605Z,98161.42
2018-04-13T21:50:32.022Z,98176.02
2018-04-13T21:53:00.940Z,98177.67
2018-04-13T21:55:29.227Z,98174.51
2018-04-13T21:57:57.555Z,98177.90
2018-04-13T22:00:25.831Z,98181.79
2018-04-13T22:02:54.181Z,98181.39
2018-04-13T22:05:22.317Z,98191.34
2018-04-13T22:07:50.777Z,98192.91
2018-04-13T22:10:19.099Z,98189.89
2018-04-13T22:13:05.916Z,98194.09
2018-04-13T22:15:34.650Z,98199.84
2018-04-13T22:18:03.132Z,98197.63
2018-04-13T22:20:32.339Z,98202.94
2018-04-13T22:23:00.620Z,98208.43
2018-04-13T22:25:30.071Z,98212.89
2018-04-13T22:27:58.384Z,98210.94
2018-04-13T22:30:27.348Z,98214.48
2018-04-13T22:32:56.448Z,98211.60
2018-04-13T22:35:24.731Z,98215.73
2018-04-13T22:37:53.243Z,98216.14
2018-04-13T22:40:21.696Z,98216.31
2018-04-13T22:42:50.322Z,98211.67
2018-04-13T22:45:18.611Z,98213.16
2018-04-13T22:47:47.035Z,98222.34
2018-04-13T22:50:15.372Z,98221.16
2018-04-13T22:52:43.655Z,98220.46
2018-04-13T22:55:11.983Z,98221.16
2018-04-13T22:57:40.259Z,98233.31
2018-04-13T23:00:08.544Z,98227.95
2018-04-13T23:02:36.886Z,98228.34
2018-04-13T23:05:05.175Z,98227.91
2018-04-13T23:07:33.472Z,98230.81
2018-04-13T23:10:01.830Z,98225.64
2018-04-13T23:12:30.143Z,98229.43
2018-04-13T23:14:58.731Z,98236.52
2018-04-13T23:17:27.043Z,98232.20
2018-04-13T23:19:55.325Z,98232.33
2018-04-13T23:22:37.746Z,98233.85
2018-04-13T23:25:06.799Z,98236.58
2018-04-13T23:27:35.707Z,98244.72
2018-04-13T23:30:03.992Z,98237.42
2018-04-13T23:32:32.327Z,98241.09
2018-04-13T23:35:00.633Z,98240.72
2018-04-13T23:37:28.945Z,98244.64
2018-04-13T23:39:57.784Z,98255.23
2018-04-13T23:42:26.070Z,98249.97
2018-04-13T23:44:55.203Z,98256.09
2018-04-13T23:47:23.511Z,98252.99
2018-04-13T23:49:52.222Z,98261.22
2018-04-13T23:52:20.530Z,98261.76
2018-04-13T23:54:48.815Z,98259.77
2018-04-13T23:57:17.919Z,98266.95
2018-04-13T23:59:46.966Z,98263.03
